createdAt,value
2022-09-30T00:01:51.282Z,19.90
2022-09-30T00:04:22.587Z,18.45
2022-09-30T00:06:49.642Z,19.60
2022-09-30T00:09:16.390Z,19.83
2022-09-30T00:11:43.142Z,19.45
2022-09-30T00:14:14.941Z,20.15
2022-09-30T00:16:41.938Z,20.47
2022-09-30T00:19:08.484Z,21.45
2022-09-30T00:21:35.093Z,21.17
2022-09-30T00:24:01.964Z,20.83
2022-09-30T00:26:28.519Z,21.42
2022-09-30T00:28:56.413Z,21.50
2022-09-30T00:31:23.996Z,21.40
2022-09-30T00:34:09.425Z,21.75
2022-09-30T00:36:43.917Z,20.90
2022-09-30T00:39:20.984Z,21.95
2022-09-30T00:41:48.725Z,20.65
2022-09-30T00:44:33.851Z,19.48
2022-09-30T00:47:00.379Z,21.13
2022-09-30T00:49:26.920Z,20.98
2022-09-30T00:51:56.614Z,19.75
2022-09-30T00:54:25.934Z,20.65
2022-09-30T00:56:54.357Z,18.80
2022-09-30T00:59:24.174Z,19.83
2022-09-30T01:01:51.816Z,17.98
2022-09-30T01:04:23.340Z,18.48
2022-09-30T01:06:50.581Z,19.25
2022-09-30T01:09:17.461Z,18.42
2022-09-30T01:11:44.093Z,17.13
2022-09-30T01:14:10.564Z,17.67
2022-09-30T01:16:40.200Z,18.15
2022-09-30T01:19:18.971Z,18.15
2022-09-30T01:21:45.529Z,16.25
2022-09-30T01:24:23.849Z,15.48
2022-09-30T01:26:57.552Z,15.15
2022-09-30T01:29:24.086Z,15.05
2022-09-30T01:32:13.486Z,13.98
2022-09-30T01:34:45.742Z,14.20
2022-09-30T01:37:35.877Z,16.38
2022-09-30T01:40:02.930Z,15.13
2022-09-30T01:42:48.263Z,14.85
2022-09-30T01:45:14.676Z,15.23
2022-09-30T01:47:47.937Z,15.23
2022-09-30T01:50:14.537Z,14.80
2022-09-30T01:52:46.062Z,14.73
2022-09-30T01:55:29.029Z,15.68
2022-09-30T01:58:02.749Z,14.65
2022-09-30T02:00:31.314Z,14.73
2022-09-30T02:03:19.698Z,14.13
2022-09-30T02:05:51.074Z,15.77
2022-09-30T02:08:21.408Z,14.25
2022-09-30T02:10:53.128Z,14.95
2022-09-30T02:13:28.189Z,16.50
2022-09-30T02:15:57.391Z,15.45
2022-09-30T02:18:31.228Z,14.20
2022-09-30T02:21:00.537Z,15.52
2022-09-30T02:23:28.984Z,14.98
2022-09-30T02:25:59.522Z,14.43
2022-09-30T02:28:27.328Z,15.27
2022-09-30T02:30:56.541Z,13.73
2022-09-30T02:33:26.045Z,14.70
2022-09-30T02:36:03.347Z,13.90
2022-09-30T02:38:37.415Z,14.35
2022-09-30T02:43:33.117Z,14.40
2022-09-30T02:45:59.522Z,14.68
2022-09-30T02:48:55.216Z,16.45
2022-09-30T02:51:23.699Z,15.63
2022-09-30T02:54:00.868Z,17.25
2022-09-30T02:56:48.870Z,17.25
2022-09-30T02:59:15.282Z,15.85
2022-09-30T03:01:42.103Z,14.80
2022-09-30T03:04:10.077Z,16.77
2022-09-30T03:06:37.117Z,16.25
2022-09-30T03:09:03.784Z,16.60
2022-09-30T03:11:30.988Z,16.33
2022-09-30T03:14:08.123Z,15.90
2022-09-30T03:16:40.635Z,17.20
2022-09-30T03:21:33.393Z,17.48
2022-09-30T03:24:07.061Z,20.83
2022-09-30T03:26:39.810Z,20.20
2022-09-30T03:29:15.241Z,18.35
2022-09-30T03:32:04.895Z,18.98
2022-09-30T03:34:38.841Z,18.90
2022-09-30T03:37:08.515Z,19.65
2022-09-30T03:39:39.850Z,20.70
2022-09-30T03:42:23.161Z,24.10
2022-09-30T03:44:56.211Z,22.10
2022-09-30T03:47:24.341Z,24.08
2022-09-30T03:49:53.076Z,24.05
2022-09-30T03:52:19.553Z,25.95
2022-09-30T03:54:46.992Z,21.45
2022-09-30T03:57:13.508Z,25.48
2022-09-30T03:59:39.865Z,24.45
2022-09-30T04:02:10.402Z,23.27
2022-09-30T04:04:36.820Z,22.63
2022-09-30T04:07:03.163Z,22.77
2022-09-30T04:09:29.544Z,21.25
2022-09-30T04:11:55.923Z,22.05
2022-09-30T04:14:22.259Z,21.90
2022-09-30T04:16:51.885Z,20.30
2022-09-30T04:19:20.344Z,22.95
2022-09-30T04:21:47.195Z,23.95
2022-09-30T04:24:14.244Z,23.58
2022-09-30T04:26:40.558Z,22.42
2022-09-30T04:29:06.882Z,22.58
2022-09-30T04:31:33.286Z,22.23
2022-09-30T04:33:59.648Z,23.17
2022-09-30T04:36:26.038Z,21.92
2022-09-30T04:38:53.426Z,22.52
2022-09-30T04:41:19.805Z,24.50
2022-09-30T04:43:46.885Z,23.20
2022-09-30T04:46:17.485Z,22.00
2022-09-30T04:48:48.139Z,24.13
2022-09-30T04:51:15.619Z,23.65
2022-09-30T04:53:42.517Z,24.40
2022-09-30T04:56:09.341Z,24.17
2022-09-30T04:58:37.101Z,23.00
2022-09-30T05:01:04.835Z,22.00
2022-09-30T05:03:31.262Z,21.75
2022-09-30T05:05:57.669Z,23.60
2022-09-30T05:08:24.169Z,23.20
2022-09-30T05:10:57.165Z,22.75
2022-09-30T05:13:24.430Z,25.35
2022-09-30T05:15:50.864Z,24.45
2022-09-30T05:18:18.260Z,25.02
2022-09-30T05:20:44.697Z,26.30
2022-09-30T05:23:11.043Z,24.63
2022-09-30T05:25:37.369Z,26.08
2022-09-30T05:28:04.246Z,23.98
2022-09-30T05:30:30.736Z,22.40
2022-09-30T05:32:57.086Z,20.63
2022-09-30T05:35:23.476Z,22.42
2022-09-30T05:37:49.842Z,21.23
2022-09-30T05:40:16.262Z,21.42
2022-09-30T05:42:44.881Z,18.88
2022-09-30T05:45:11.213Z,19.15
2022-09-30T05:47:37.609Z,20.17
2022-09-30T05:50:04.122Z,17.02
2022-09-30T05:52:30.472Z,16.55
2022-09-30T05:54:59.012Z,17.33
2022-09-30T05:57:25.620Z,16.05
2022-09-30T05:59:51.928Z,18.55
2022-09-30T06:02:18.381Z,17.67
2022-09-30T06:04:44.785Z,19.15
2022-09-30T06:07:11.119Z,20.05
2022-09-30T06:09:37.668Z,20.83
2022-09-30T06:12:04.127Z,22.52
2022-09-30T06:14:30.551Z,22.92
2022-09-30T06:16:56.966Z,25.17
2022-09-30T06:19:23.501Z,25.40
2022-09-30T06:21:49.932Z,32.53
2022-09-30T06:24:16.238Z,32.40
2022-09-30T06:26:43.157Z,31.27
2022-09-30T06:29:09.575Z,27.55
2022-09-30T06:31:36.065Z,25.05
2022-09-30T06:34:02.671Z,25.67
2022-09-30T06:36:29.250Z,23.60
2022-09-30T06:38:55.580Z,22.63
2022-09-30T06:41:25.694Z,23.73
2022-09-30T06:43:57.619Z,23.20
2022-09-30T06:46:31.362Z,20.40
2022-09-30T06:49:09.568Z,19.63
2022-09-30T06:51:38.956Z,19.42
2022-09-30T06:54:10.377Z,17.70
2022-09-30T06:56:41.806Z,15.50
2022-09-30T06:59:08.345Z,15.45
2022-09-30T07:01:34.869Z,15.38
2022-09-30T07:04:07.849Z,14.43
2022-09-30T07:06:34.304Z,14.07
2022-09-30T07:09:00.770Z,14.55
2022-09-30T07:11:27.277Z,14.70
2022-09-30T07:13:53.721Z,13.52
2022-09-30T07:16:21.201Z,14.35
2022-09-30T07:18:47.750Z,13.52
2022-09-30T07:21:15.979Z,12.85
2022-09-30T07:23:47.181Z,12.93
2022-09-30T07:26:17.829Z,13.45
2022-09-30T07:28:45.126Z,12.73
2022-09-30T07:31:31.927Z,12.27
2022-09-30T07:33:59.421Z,12.05
2022-09-30T07:36:33.178Z,12.73
2022-09-30T07:39:05.171Z,11.25
2022-09-30T07:41:31.706Z,12.05
2022-09-30T07:44:01.450Z,11.75
2022-09-30T07:46:29.690Z,12.25
2022-09-30T07:48:59.468Z,12.68
2022-09-30T07:51:30.096Z,12.43
2022-09-30T07:54:05.696Z,12.52
2022-09-30T07:56:51.310Z,11.68
2022-09-30T07:59:19.342Z,12.05
2022-09-30T08:01:46.065Z,11.55
2022-09-30T08:04:12.939Z,11.27
2022-09-30T08:06:40.896Z,11.75
2022-09-30T08:09:07.342Z,12.63
2022-09-30T08:11:34.605Z,11.98
2022-09-30T08:14:01.121Z,11.77
2022-09-30T08:16:27.973Z,12.68
2022-09-30T08:18:55.298Z,11.32
2022-09-30T08:21:21.825Z,12.18
2022-09-30T08:23:48.340Z,12.68
2022-09-30T08:26:16.133Z,12.20
2022-09-30T08:28:43.152Z,11.82
2022-09-30T08:31:16.782Z,12.02
2022-09-30T08:33:43.284Z,12.88
2022-09-30T08:36:11.290Z,12.45
2022-09-30T08:38:37.759Z,13.65
2022-09-30T08:41:22.244Z,13.85
2022-09-30T08:43:51.404Z,15.15
2022-09-30T08:46:27.474Z,14.07
2022-09-30T08:49:12.538Z,15.73
2022-09-30T08:51:44.578Z,15.80
2022-09-30T08:54:13.698Z,15.07
2022-09-30T08:56:40.152Z,15.63
2022-09-30T08:59:28.486Z,14.70
2022-09-30T09:01:59.115Z,16.40
2022-09-30T09:04:25.731Z,15.80
2022-09-30T09:06:58.962Z,15.65
2022-09-30T09:09:43.306Z,17.27
2022-09-30T09:12:28.966Z,14.32
2022-09-30T09:15:01.278Z,14.30
2022-09-30T09:17:27.648Z,16.35
2022-09-30T09:20:08.325Z,17.50
2022-09-30T09:22:35.389Z,18.15
2022-09-30T09:25:03.080Z,18.58
2022-09-30T09:27:32.531Z,16.23
2022-09-30T09:30:02.939Z,18.10
2022-09-30T09:32:30.268Z,17.80
2022-09-30T09:35:01.440Z,17.55
2022-09-30T09:38:02.771Z,17.70
2022-09-30T09:40:35.607Z,17.58
2022-09-30T09:43:13.129Z,15.63
2022-09-30T09:45:51.055Z,17.60
2022-09-30T09:48:17.500Z,17.13
2022-09-30T09:50:47.196Z,18.92
2022-09-30T09:53:38.330Z,16.75
2022-09-30T09:56:18.032Z,16.70
2022-09-30T09:59:04.074Z,17.27
2022-09-30T10:01:34.030Z,18.50
2022-09-30T10:04:24.516Z,14.40
2022-09-30T10:07:01.381Z,12.10
2022-09-30T10:09:29.845Z,11.45
2022-09-30T10:12:02.389Z,10.90
2022-09-30T10:14:28.850Z,9.77
2022-09-30T10:16:57.934Z,10.18
2022-09-30T10:19:27.976Z,9.70
2022-09-30T10:22:14.532Z,9.40
2022-09-30T10:24:41.097Z,10.18
2022-09-30T10:27:34.948Z,8.57
2022-09-30T10:30:01.272Z,9.45
2022-09-30T10:32:28.116Z,10.68
2022-09-30T10:34:56.277Z,9.35
2022-09-30T10:37:23.586Z,8.02
2022-09-30T10:39:54.199Z,8.07
2022-09-30T10:42:26.319Z,9.23
2022-09-30T10:47:21.173Z,7.38
2022-09-30T10:49:54.466Z,6.30
2022-09-30T10:52:23.425Z,6.70
2022-09-30T10:54:49.767Z,6.05
2022-09-30T10:57:36.406Z,6.90
2022-09-30T11:00:08.251Z,8.00
2022-09-30T11:02:48.359Z,8.10
2022-09-30T11:05:22.965Z,7.53
2022-09-30T11:07:53.099Z,8.32
2022-09-30T11:10:38.073Z,9.25
2022-09-30T11:13:13.224Z,8.18
2022-09-30T11:15:45.097Z,8.15
2022-09-30T11:18:11.412Z,8.20
2022-09-30T11:20:41.594Z,9.68
2022-09-30T11:23:20.981Z,9.30
2022-09-30T11:25:50.359Z,9.45
2022-09-30T11:28:29.650Z,10.00
2022-09-30T11:31:09.617Z,9.70
2022-09-30T11:33:47.258Z,9.15
2022-09-30T11:36:22.802Z,11.77
2022-09-30T11:38:49.146Z,10.68
2022-09-30T11:41:22.160Z,11.00
2022-09-30T11:44:07.080Z,9.90
2022-09-30T11:46:45.654Z,9.25
2022-09-30T11:49:41.449Z,8.68
2022-09-30T11:52:36.894Z,7.80
2022-09-30T11:55:11.811Z,6.88
2022-09-30T11:58:12.098Z,5.97
2022-09-30T12:00:51.177Z,6.75
2022-09-30T12:03:25.126Z,5.30
2022-09-30T12:05:54.770Z,5.28
2022-09-30T12:08:24.655Z,5.50
2022-09-30T12:10:54.040Z,4.70
2022-09-30T12:13:23.802Z,3.90
2022-09-30T12:15:51.931Z,4.03
2022-09-30T12:18:24.641Z,3.35
2022-09-30T12:20:56.600Z,3.50
2022-09-30T12:23:35.581Z,3.47
2022-09-30T12:26:02.974Z,4.05
2022-09-30T12:28:51.654Z,2.97
2022-09-30T12:31:41.100Z,3.60
2022-09-30T12:34:14.318Z,3.25
2022-09-30T12:36:59.556Z,2.83
2022-09-30T12:39:55.438Z,2.30
2022-09-30T12:42:33.476Z,1.80
2022-09-30T12:45:22.836Z,1.70
2022-09-30T12:47:51.440Z,1.52
2022-09-30T12:50:19.293Z,1.17
2022-09-30T12:52:45.779Z,1.35
2022-09-30T12:55:25.312Z,1.60
2022-09-30T12:57:52.773Z,1.75
2022-09-30T13:00:20.609Z,1.77
2022-09-30T13:02:49.180Z,1.52
2022-09-30T13:05:27.519Z,1.55
2022-09-30T13:08:06.101Z,1.27
2022-09-30T13:10:54.019Z,1.30
2022-09-30T13:13:21.910Z,1.10
2022-09-30T13:15:48.276Z,1.25
2022-09-30T13:18:20.653Z,1.02
2022-09-30T13:20:56.368Z,1.15
2022-09-30T13:23:41.425Z,0.90
2022-09-30T13:26:23.185Z,1.35
2022-09-30T13:28:50.518Z,1.00
2022-09-30T13:31:20.923Z,1.42
2022-09-30T13:34:02.181Z,1.17
2022-09-30T13:36:38.200Z,0.82
2022-09-30T13:39:25.877Z,1.20
2022-09-30T13:41:55.371Z,0.95
2022-09-30T13:44:26.604Z,0.80
2022-09-30T13:46:56.220Z,0.98
2022-09-30T13:49:26.424Z,1.20
2022-09-30T13:51:54.848Z,1.35
2022-09-30T13:54:29.106Z,1.17
2022-09-30T13:56:56.080Z,1.52
2022-09-30T13:59:28.779Z,1.15
2022-09-30T14:02:05.190Z,1.20
2022-09-30T14:04:41.052Z,1.30
2022-09-30T14:07:14.050Z,0.90
2022-09-30T14:09:47.227Z,0.98
2022-09-30T14:12:19.437Z,1.20
2022-09-30T14:15:07.079Z,1.00
2022-09-30T14:17:52.393Z,0.95
2022-09-30T14:20:19.414Z,1.02
2022-09-30T14:22:45.872Z,0.93
2022-09-30T14:25:16.822Z,0.93
2022-09-30T14:27:49.453Z,1.20
2022-09-30T14:30:20.533Z,1.20
2022-09-30T14:33:09.657Z,1.08
2022-09-30T14:35:37.407Z,1.10
2022-09-30T14:38:05.961Z,1.17
2022-09-30T14:40:33.455Z,0.80
2022-09-30T14:43:02.840Z,0.80
2022-09-30T14:45:31.307Z,0.90
2022-09-30T14:47:59.434Z,1.08
2022-09-30T14:50:28.130Z,0.80
2022-09-30T14:52:58.549Z,1.00
2022-09-30T14:55:32.248Z,1.13
2022-09-30T14:58:18.144Z,0.88
2022-09-30T15:00:47.576Z,1.17
2022-09-30T15:03:14.160Z,1.10
2022-09-30T15:05:41.029Z,1.60
2022-09-30T15:08:10.957Z,1.30
2022-09-30T15:10:37.421Z,1.40
2022-09-30T15:13:04.384Z,1.90
2022-09-30T15:15:35.587Z,1.30
2022-09-30T15:18:20.442Z,0.88
2022-09-30T15:20:47.816Z,0.80
2022-09-30T15:23:19.925Z,1.15
2022-09-30T15:25:46.454Z,1.80
2022-09-30T15:28:13.316Z,1.10
2022-09-30T15:30:43.366Z,1.67
2022-09-30T15:33:16.330Z,1.40
2022-09-30T15:35:42.786Z,1.42
2022-09-30T15:38:18.063Z,1.13
2022-09-30T15:40:50.261Z,1.30
2022-09-30T15:43:30.185Z,1.23
2022-09-30T15:45:58.124Z,1.52
2022-09-30T15:48:25.662Z,1.40
2022-09-30T15:50:56.527Z,1.15
2022-09-30T15:53:29.248Z,1.17
2022-09-30T15:56:18.890Z,0.95
2022-09-30T15:59:03.837Z,1.33
2022-09-30T16:01:33.259Z,1.10
2022-09-30T16:04:05.313Z,1.10
2022-09-30T16:06:37.219Z,1.35
2022-09-30T16:09:06.566Z,1.35
2022-09-30T16:11:34.874Z,1.50
2022-09-30T16:14:02.999Z,1.38
2022-09-30T16:16:33.398Z,0.98
2022-09-30T16:19:01.241Z,1.30
2022-09-30T16:21:27.565Z,1.50
2022-09-30T16:23:54.551Z,1.95
2022-09-30T16:26:28.620Z,1.98
2022-09-30T16:29:05.831Z,3.55
2022-09-30T16:31:34.652Z,1.83
2022-09-30T16:34:01.169Z,1.50
2022-09-30T16:36:27.693Z,2.65
2022-09-30T16:38:54.001Z,2.40
2022-09-30T16:41:20.344Z,1.58
2022-09-30T16:43:46.863Z,1.33
2022-09-30T16:46:13.560Z,1.10
2022-09-30T16:48:39.962Z,1.58
2022-09-30T16:51:11.004Z,1.85
2022-09-30T16:53:37.393Z,1.75
2022-09-30T16:56:04.217Z,2.25
2022-09-30T16:58:31.336Z,2.50
2022-09-30T17:01:00.291Z,3.92
2022-09-30T17:03:26.781Z,3.30
2022-09-30T17:05:53.202Z,4.10
2022-09-30T17:08:20.274Z,3.78
2022-09-30T17:10:49.790Z,3.35
2022-09-30T17:13:17.340Z,3.10
2022-09-30T17:15:47.982Z,3.63
2022-09-30T17:18:14.893Z,2.90
2022-09-30T17:20:45.347Z,2.88
2022-09-30T17:23:12.492Z,3.30
2022-09-30T17:25:41.010Z,3.10
2022-09-30T17:28:07.879Z,3.53
2022-09-30T17:30:34.305Z,3.33
2022-09-30T17:33:00.613Z,3.05
2022-09-30T17:35:26.901Z,4.70
2022-09-30T17:37:53.289Z,3.83
2022-09-30T17:40:38.130Z,3.20
2022-09-30T17:43:07.200Z,3.00
2022-09-30T17:45:37.599Z,2.92
2022-09-30T17:48:04.976Z,3.10
2022-09-30T17:50:31.336Z,4.45
2022-09-30T17:52:57.717Z,4.85
2022-09-30T17:55:24.485Z,3.40
2022-09-30T17:57:53.168Z,4.75
2022-09-30T18:00:20.580Z,4.80
2022-09-30T18:02:48.123Z,3.95
2022-09-30T18:05:15.597Z,6.60
2022-09-30T18:07:41.917Z,6.65
2022-09-30T18:10:08.489Z,7.20
2022-09-30T18:12:34.873Z,8.65
2022-09-30T18:15:01.337Z,7.20
2022-09-30T18:17:28.150Z,7.57
2022-09-30T18:19:54.599Z,6.50
2022-09-30T18:22:21.017Z,5.90
2022-09-30T18:25:06.118Z,5.68
2022-09-30T18:27:33.802Z,8.18
2022-09-30T18:30:01.405Z,7.00
2022-09-30T18:32:28.493Z,6.85
2022-09-30T18:34:56.240Z,6.30
2022-09-30T18:37:23.265Z,7.18
2022-09-30T18:39:49.680Z,6.53
2022-09-30T18:42:17.433Z,5.68
2022-09-30T18:44:44.093Z,6.18
2022-09-30T18:47:10.425Z,5.32
2022-09-30T18:49:36.762Z,4.95
2022-09-30T18:52:04.516Z,4.88
2022-09-30T18:54:30.969Z,4.70
2022-09-30T18:56:57.276Z,5.30
2022-09-30T18:59:24.205Z,4.85
2022-09-30T19:01:50.860Z,4.13
2022-09-30T19:04:17.250Z,4.28
2022-09-30T19:06:44.436Z,3.58
2022-09-30T19:09:10.910Z,4.35
2022-09-30T19:11:37.355Z,4.45
2022-09-30T19:14:05.589Z,4.63
2022-09-30T19:16:37.913Z,3.83
2022-09-30T19:19:06.281Z,3.85
2022-09-30T19:21:36.213Z,3.83
2022-09-30T19:24:04.334Z,5.15
2022-09-30T19:26:31.689Z,4.38
2022-09-30T19:28:58.141Z,4.80
2022-09-30T19:31:25.272Z,6.75
2022-09-30T19:33:56.681Z,6.25
2022-09-30T19:36:23.957Z,7.20
2022-09-30T19:38:51.571Z,6.90
2022-09-30T19:41:20.525Z,7.80
2022-09-30T19:43:48.997Z,7.38
2022-09-30T19:46:15.379Z,8.93
2022-09-30T19:48:41.961Z,5.20
2022-09-30T19:51:13.057Z,4.95
2022-09-30T19:53:45.574Z,4.90
2022-09-30T19:56:34.654Z,4.00
2022-09-30T19:59:01.080Z,3.90
2022-09-30T20:01:31.216Z,3.53
2022-09-30T20:03:59.323Z,4.07
2022-09-30T20:06:27.563Z,3.78
2022-09-30T20:08:56.982Z,4.65
2022-09-30T20:11:24.186Z,3.33
2022-09-30T20:14:11.403Z,4.60
2022-09-30T20:16:41.539Z,3.97
2022-09-30T20:19:08.048Z,4.55
2022-09-30T20:21:35.095Z,5.97
2022-09-30T20:24:02.390Z,6.03
2022-09-30T20:26:28.820Z,5.32
2022-09-30T20:28:58.172Z,4.00
2022-09-30T20:31:25.182Z,2.80
2022-09-30T20:33:58.401Z,3.70
2022-09-30T20:36:25.616Z,2.92
2022-09-30T20:38:52.723Z,3.33
2022-09-30T20:41:19.197Z,3.58
2022-09-30T20:43:49.093Z,3.20
2022-09-30T20:46:15.416Z,3.60
2022-09-30T20:48:41.850Z,3.17
2022-09-30T20:51:09.249Z,2.60
2022-09-30T20:53:37.918Z,3.13
2022-09-30T20:56:04.253Z,3.53
2022-09-30T20:58:30.654Z,5.05
2022-09-30T21:01:01.820Z,4.10
2022-09-30T21:03:31.925Z,4.15
2022-09-30T21:05:59.027Z,3.05
2022-09-30T21:08:25.699Z,3.58
2022-09-30T21:10:52.029Z,3.33
2022-09-30T21:13:18.389Z,3.83
2022-09-30T21:15:45.285Z,3.80
2022-09-30T21:18:11.673Z,4.00
2022-09-30T21:20:38.169Z,5.07
2022-09-30T21:23:04.730Z,3.72
2022-09-30T21:25:31.852Z,2.97
2022-09-30T21:27:58.288Z,3.47
2022-09-30T21:30:24.727Z,3.00
2022-09-30T21:32:51.041Z,4.30
2022-09-30T21:35:17.337Z,3.97
2022-09-30T21:37:43.828Z,3.80
2022-09-30T21:40:10.948Z,3.78
2022-09-30T21:42:37.499Z,4.40
2022-09-30T21:45:04.454Z,3.85
2022-09-30T21:47:30.777Z,7.95
2022-09-30T21:49:57.382Z,4.70
2022-09-30T21:52:23.753Z,3.90
2022-09-30T21:54:55.678Z,3.83
2022-09-30T21:57:22.383Z,3.80
2022-09-30T21:59:50.533Z,3.90
2022-09-30T22:02:17.006Z,3.55
2022-09-30T22:04:43.401Z,3.90
2022-09-30T22:07:09.699Z,4.10
2022-09-30T22:09:39.416Z,4.72
2022-09-30T22:12:08.595Z,3.85
2022-09-30T22:14:36.149Z,3.63
2022-09-30T22:17:02.665Z,3.60
2022-09-30T22:19:29.134Z,3.45
2022-09-30T22:21:55.522Z,3.83
2022-09-30T22:24:22.401Z,4.05
2022-09-30T22:26:49.110Z,4.22
2022-09-30T22:29:16.413Z,4.43
2022-09-30T22:31:42.864Z,4.43
2022-09-30T22:34:32.212Z,4.68
2022-09-30T22:37:17.844Z,4.53
2022-09-30T22:39:44.245Z,4.65
2022-09-30T22:42:10.555Z,4.47
2022-09-30T22:44:37.192Z,4.63
2022-09-30T22:47:04.130Z,5.68
2022-09-30T22:49:33.472Z,4.28
2022-09-30T22:52:00.355Z,4.68
2022-09-30T22:54:26.961Z,4.90
2022-09-30T22:56:54.809Z,4.80
2022-09-30T22:59:22.388Z,4.95
2022-09-30T23:01:49.289Z,4.65
2022-09-30T23:04:17.161Z,5.05
2022-09-30T23:06:44.267Z,4.78
2022-09-30T23:09:10.697Z,4.20
2022-09-30T23:11:37.069Z,4.45
2022-09-30T23:14:03.420Z,4.55
2022-09-30T23:16:29.852Z,4.80
2022-09-30T23:18:56.962Z,5.13
2022-09-30T23:21:23.356Z,5.82
2022-09-30T23:23:49.763Z,5.20
2022-09-30T23:26:20.397Z,5.05
2022-09-30T23:28:47.160Z,4.97
2022-09-30T23:31:14.497Z,5.40
2022-09-30T23:33:51.197Z,4.93
2022-09-30T23:36:18.950Z,5.40
2022-09-30T23:38:45.939Z,5.30
2022-09-30T23:41:12.717Z,4.70
2022-09-30T23:43:39.195Z,5.88
2022-09-30T23:46:06.925Z,5.85
2022-09-30T23:48:34.327Z,5.45
2022-09-30T23:51:01.281Z,5.30
2022-09-30T23:53:27.657Z,5.10
2022-09-30T23:56:13.894Z,5.15
2022-09-30T23:58:40.301Z,5.43
